createdAt,value
2019-06-27T00:01:43.204Z,24.55
2019-06-27T00:04:13.608Z,24.45
2019-06-27T00:06:43.853Z,24.37
2019-06-27T00:09:15.163Z,24.29
2019-06-27T00:11:45.683Z,24.25
2019-06-27T00:14:16.229Z,24.20
2019-06-27T00:16:46.438Z,24.13
2019-06-27T00:19:16.781Z,24.14
2019-06-27T00:21:47.481Z,24.25
2019-06-27T00:24:18.709Z,24.28
2019-06-27T00:26:57.292Z,24.32
2019-06-27T00:29:21.279Z,24.29
2019-06-27T00:31:51.521Z,24.23
2019-06-27T00:34:22.166Z,24.19
2019-06-27T00:36:52.451Z,24.18
2019-06-27T00:39:23.045Z,24.10
2019-06-27T00:41:53.916Z,24.05
2019-06-27T00:44:24.603Z,23.98
2019-06-27T00:46:54.892Z,23.92
2019-06-27T00:49:25.247Z,23.84
2019-06-27T00:51:55.884Z,23.80
2019-06-27T00:54:27.204Z,23.78
2019-06-27T00:57:12.916Z,23.73
2019-06-27T00:59:30.176Z,23.65
2019-06-27T01:02:00.421Z,23.55
2019-06-27T01:04:30.644Z,23.54
2019-06-27T01:07:01.078Z,23.45
2019-06-27T01:09:31.298Z,23.41
2019-06-27T01:12:01.504Z,23.36
2019-06-27T01:14:31.738Z,23.32
2019-06-27T01:17:02.020Z,23.33
2019-06-27T01:19:32.248Z,23.36
2019-06-27T01:22:02.455Z,23.33
2019-06-27T01:24:32.697Z,23.39
2019-06-27T01:27:03.330Z,23.33
2019-06-27T01:29:33.550Z,23.21
2019-06-27T01:32:03.823Z,23.13
2019-06-27T01:34:35.128Z,23.13
2019-06-27T01:37:05.523Z,23.07
2019-06-27T01:39:35.775Z,22.94
2019-06-27T01:42:06.974Z,22.91
2019-06-27T01:44:45.735Z,22.92
2019-06-27T01:47:16.019Z,22.89
2019-06-27T01:49:46.190Z,22.89
2019-06-27T01:52:16.568Z,22.94
2019-06-27T01:54:47.244Z,22.97
2019-06-27T01:57:17.634Z,22.95
2019-06-27T01:59:47.930Z,22.87
2019-06-27T02:02:18.257Z,22.81
2019-06-27T02:04:48.471Z,22.84
2019-06-27T02:07:19.102Z,22.82
2019-06-27T02:09:49.307Z,22.81
2019-06-27T02:12:20.106Z,22.77
2019-06-27T02:14:50.390Z,22.81
2019-06-27T02:19:36.085Z,22.89
2019-06-27T02:22:06.324Z,22.82
2019-06-27T02:24:36.709Z,22.81
2019-06-27T02:27:07.003Z,22.78
2019-06-27T02:29:37.303Z,22.72
2019-06-27T02:32:07.570Z,22.64
2019-06-27T02:34:37.834Z,22.56
2019-06-27T02:37:08.091Z,22.51
2019-06-27T02:39:38.350Z,22.49
2019-06-27T02:42:08.660Z,22.44
2019-06-27T02:44:39.409Z,22.39
2019-06-27T02:47:09.803Z,22.37
2019-06-27T02:49:40.488Z,22.39
2019-06-27T02:52:10.986Z,22.47
2019-06-27T02:54:41.222Z,22.47
2019-06-27T02:57:11.814Z,22.50
2019-06-27T02:59:42.100Z,22.46
2019-06-27T03:02:12.679Z,22.46
2019-06-27T03:04:42.955Z,22.52
2019-06-27T03:07:13.495Z,22.49
2019-06-27T03:09:43.788Z,22.45
2019-06-27T03:12:14.034Z,22.39
2019-06-27T03:14:44.263Z,22.26
2019-06-27T03:17:14.589Z,22.25
2019-06-27T03:19:45.149Z,22.26
2019-06-27T03:22:15.562Z,22.23
2019-06-27T03:24:45.752Z,22.21
2019-06-27T03:27:16.548Z,22.16
2019-06-27T03:29:47.365Z,22.14
2019-06-27T03:32:18.045Z,22.13
2019-06-27T03:34:48.286Z,22.13
2019-06-27T03:37:19.087Z,22.10
2019-06-27T03:39:49.694Z,22.08
2019-06-27T03:42:20.847Z,22.06
2019-06-27T03:44:51.162Z,22.08
2019-06-27T03:47:21.796Z,22.01
2019-06-27T03:49:52.104Z,21.95
2019-06-27T03:52:22.390Z,21.94
2019-06-27T03:54:52.699Z,21.91
2019-06-27T03:57:24.213Z,21.93
2019-06-27T03:59:54.571Z,21.94
2019-06-27T04:02:24.823Z,21.97
2019-06-27T04:04:55.174Z,22.02
2019-06-27T04:07:25.536Z,22.05
2019-06-27T04:09:56.025Z,22.07
2019-06-27T04:12:26.593Z,22.13
2019-06-27T04:14:56.787Z,22.21
2019-06-27T04:22:24.754Z,22.26
2019-06-27T04:24:55.011Z,22.23
2019-06-27T04:29:54.339Z,22.39
2019-06-27T04:32:25.095Z,22.48
2019-06-27T04:34:55.743Z,22.49
2019-06-27T04:37:26.094Z,22.51
2019-06-27T04:39:56.671Z,22.55
2019-06-27T04:42:26.924Z,22.68
2019-06-27T04:44:57.232Z,22.78
2019-06-27T04:47:27.853Z,22.87
2019-06-27T04:49:58.469Z,22.93
2019-06-27T04:52:29.123Z,23.01
2019-06-27T04:55:03.374Z,23.10
2019-06-27T04:57:32.034Z,23.14
2019-06-27T05:00:02.335Z,23.21
2019-06-27T05:02:32.608Z,23.29
2019-06-27T05:05:02.930Z,23.33
2019-06-27T05:07:34.662Z,23.35
2019-06-27T05:10:05.532Z,23.39
2019-06-27T05:12:35.752Z,23.47
2019-06-27T05:15:06.983Z,23.59
2019-06-27T05:17:37.802Z,23.68
2019-06-27T05:20:08.426Z,23.77
2019-06-27T05:22:38.726Z,23.82
2019-06-27T05:25:08.956Z,23.89
2019-06-27T05:27:39.812Z,23.97
2019-06-27T05:30:10.744Z,24.01
2019-06-27T05:32:41.011Z,24.05
2019-06-27T05:35:11.612Z,24.13
2019-06-27T05:37:43.518Z,24.19
2019-06-27T05:40:14.260Z,24.26
2019-06-27T05:42:44.457Z,24.34
2019-06-27T05:45:14.732Z,24.42
2019-06-27T05:47:45.290Z,24.48
2019-06-27T05:50:15.637Z,24.58
2019-06-27T05:52:45.805Z,24.61
2019-06-27T05:55:16.020Z,24.63
2019-06-27T05:57:46.246Z,24.75
2019-06-27T06:00:27.507Z,24.80
2019-06-27T06:02:48.728Z,24.81
2019-06-27T06:05:18.977Z,24.85
2019-06-27T06:07:49.268Z,24.95
2019-06-27T06:10:20.588Z,24.93
2019-06-27T06:12:50.813Z,25.00
2019-06-27T06:15:21.069Z,25.03
2019-06-27T06:17:51.470Z,25.13
2019-06-27T06:20:22.997Z,25.11
2019-06-27T06:22:53.469Z,25.27
2019-06-27T06:25:23.791Z,25.36
2019-06-27T06:27:54.292Z,25.49
2019-06-27T06:30:24.789Z,25.57
2019-06-27T06:32:55.492Z,25.67
2019-06-27T06:35:25.748Z,25.68
2019-06-27T06:37:55.938Z,25.72
2019-06-27T06:40:26.436Z,25.81
2019-06-27T06:43:00.330Z,25.88
2019-06-27T06:45:28.942Z,25.99
2019-06-27T06:47:59.132Z,26.09
2019-06-27T06:50:29.380Z,26.16
2019-06-27T06:52:59.678Z,26.14
2019-06-27T06:55:29.879Z,26.15
2019-06-27T06:58:00.166Z,26.23
2019-06-27T07:00:30.424Z,26.35
2019-06-27T07:03:00.655Z,26.46
2019-06-27T07:05:30.907Z,26.59
2019-06-27T07:08:01.533Z,26.59
2019-06-27T07:10:32.510Z,26.68
2019-06-27T07:13:03.115Z,26.68
2019-06-27T07:15:33.353Z,26.84
2019-06-27T07:18:03.557Z,26.91
2019-06-27T07:20:34.160Z,26.92
2019-06-27T07:23:04.558Z,27.10
2019-06-27T07:25:35.500Z,27.08
2019-06-27T07:28:06.568Z,27.15
2019-06-27T07:30:36.737Z,27.31
2019-06-27T07:33:10.084Z,27.43
2019-06-27T07:35:38.912Z,27.53
2019-06-27T07:38:09.506Z,27.57
2019-06-27T07:40:39.832Z,27.64
2019-06-27T07:43:10.224Z,27.73
2019-06-27T07:45:40.508Z,27.89
2019-06-27T07:48:11.243Z,28.02
2019-06-27T07:50:41.426Z,28.12
2019-06-27T07:53:11.969Z,28.14
2019-06-27T07:55:42.256Z,28.14
2019-06-27T07:58:12.494Z,28.20
2019-06-27T08:00:42.777Z,28.33
2019-06-27T08:03:12.967Z,28.34
2019-06-27T08:05:43.522Z,28.31
2019-06-27T08:08:13.780Z,28.36
2019-06-27T08:10:44.077Z,28.46
2019-06-27T08:13:14.631Z,28.51
2019-06-27T08:15:44.816Z,28.69
2019-06-27T08:18:15.194Z,28.61
2019-06-27T08:20:45.384Z,28.65
2019-06-27T08:23:15.701Z,28.75
2019-06-27T08:25:45.916Z,28.95
2019-06-27T08:28:16.126Z,29.18
2019-06-27T08:30:46.441Z,29.31
2019-06-27T08:33:17.281Z,29.44
2019-06-27T08:35:47.908Z,29.42
2019-06-27T08:38:18.189Z,29.52
2019-06-27T08:40:48.366Z,29.62
2019-06-27T08:43:18.637Z,29.64
2019-06-27T08:45:48.923Z,29.71
2019-06-27T08:48:19.136Z,29.82
2019-06-27T08:50:49.366Z,29.77
2019-06-27T08:53:19.802Z,29.85
2019-06-27T08:55:50.329Z,30.04
2019-06-27T08:58:21.111Z,30.21
2019-06-27T09:00:51.445Z,30.29
2019-06-27T09:03:22.167Z,30.42
2019-06-27T09:05:52.433Z,30.24
2019-06-27T09:08:22.705Z,30.41
2019-06-27T09:10:52.996Z,30.61
2019-06-27T09:13:23.646Z,30.82
2019-06-27T09:15:53.941Z,31.13
2019-06-27T09:18:24.836Z,31.06
2019-06-27T09:20:55.102Z,31.04
2019-06-27T09:23:25.836Z,31.15
2019-06-27T09:25:56.359Z,31.36
2019-06-27T09:28:27.162Z,31.63
2019-06-27T09:30:57.442Z,31.84
2019-06-27T09:33:28.045Z,31.85
2019-06-27T09:35:58.280Z,31.93
2019-06-27T09:38:28.564Z,32.21
2019-06-27T09:40:58.828Z,32.31
2019-06-27T09:43:29.026Z,32.67
2019-06-27T09:45:59.567Z,32.88
2019-06-27T09:48:29.855Z,33.15
2019-06-27T09:51:00.136Z,33.09
2019-06-27T09:53:30.621Z,33.50
2019-06-27T09:56:00.912Z,33.51
2019-06-27T09:58:31.114Z,33.74
2019-06-27T10:01:01.332Z,34.23
2019-06-27T10:03:31.602Z,34.66
2019-06-27T10:06:02.501Z,34.68
2019-06-27T10:08:32.917Z,34.84
2019-06-27T10:11:03.175Z,35.02
2019-06-27T10:13:33.412Z,35.61
2019-06-27T10:16:03.697Z,36.11
2019-06-27T10:18:34.292Z,35.88
2019-06-27T10:21:04.555Z,35.54
2019-06-27T10:23:34.800Z,36.18
2019-06-27T10:26:06.328Z,36.26
2019-06-27T10:28:36.944Z,36.24
2019-06-27T10:31:07.168Z,36.58
2019-06-27T10:33:37.771Z,36.45
2019-06-27T10:36:08.613Z,36.65
2019-06-27T10:38:38.914Z,37.08
2019-06-27T10:41:09.180Z,36.75
2019-06-27T10:43:39.408Z,36.99
2019-06-27T10:46:10.664Z,37.10
2019-06-27T10:48:40.944Z,37.67
2019-06-27T10:51:11.220Z,37.79
2019-06-27T10:53:41.488Z,37.69
2019-06-27T10:56:11.782Z,37.75
2019-06-27T10:58:42.018Z,37.77
2019-06-27T11:01:12.249Z,37.83
2019-06-27T11:03:42.761Z,38.55
2019-06-27T11:06:13.348Z,38.74
2019-06-27T11:08:43.519Z,39.13
2019-06-27T11:11:13.749Z,39.14
2019-06-27T11:13:57.979Z,39.20
2019-06-27T11:16:17.090Z,39.78
2019-06-27T11:18:47.473Z,39.99
2019-06-27T11:21:18.272Z,40.45
2019-06-27T11:23:48.883Z,41.06
2019-06-27T11:26:19.347Z,41.06
2019-06-27T11:28:49.810Z,41.32
2019-06-27T11:31:20.144Z,41.39
2019-06-27T11:33:50.590Z,41.96
2019-06-27T11:36:21.118Z,42.08
2019-06-27T11:38:51.360Z,41.95
2019-06-27T11:41:21.852Z,41.86
2019-06-27T11:43:52.405Z,42.55
2019-06-27T11:46:22.719Z,42.79
2019-06-27T11:48:53.977Z,42.17
2019-06-27T11:51:24.282Z,42.35
2019-06-27T11:53:54.562Z,43.21
2019-06-27T11:56:26.091Z,42.67
2019-06-27T11:58:56.392Z,43.24
2019-06-27T12:01:26.891Z,42.98
2019-06-27T12:03:57.179Z,42.94
2019-06-27T12:06:27.451Z,42.58
2019-06-27T12:08:58.008Z,42.89
2019-06-27T12:11:28.308Z,43.93
2019-06-27T12:13:58.505Z,44.92
2019-06-27T12:16:28.696Z,45.29
2019-06-27T12:18:58.917Z,44.02
2019-06-27T12:21:29.197Z,44.02
2019-06-27T12:23:59.468Z,43.40
2019-06-27T12:26:29.745Z,43.59
2019-06-27T12:29:00.296Z,45.34
2019-06-27T12:31:30.501Z,44.61
2019-06-27T12:34:06.970Z,44.04
2019-06-27T12:36:33.001Z,44.40
2019-06-27T12:39:03.772Z,45.10
2019-06-27T12:41:35.386Z,45.57
2019-06-27T12:44:05.656Z,45.35
2019-06-27T12:46:35.917Z,45.21
2019-06-27T12:49:06.093Z,45.17
2019-06-27T12:51:36.394Z,46.25
2019-06-27T12:54:06.641Z,47.00
2019-06-27T12:56:37.280Z,47.02
2019-06-27T12:59:07.550Z,47.47
2019-06-27T13:01:37.780Z,45.74
2019-06-27T13:04:22.295Z,45.06
2019-06-27T13:06:40.048Z,46.32
2019-06-27T13:09:10.449Z,46.68
2019-06-27T13:11:40.773Z,46.45
2019-06-27T13:14:10.996Z,47.12
2019-06-27T13:16:41.304Z,46.04
2019-06-27T13:19:11.551Z,46.72
2019-06-27T13:21:42.269Z,46.91
2019-06-27T13:24:12.490Z,47.50
2019-06-27T13:26:42.760Z,46.70
2019-06-27T13:29:13.056Z,47.50
2019-06-27T13:31:43.703Z,47.23
2019-06-27T13:34:14.816Z,46.52
2019-06-27T13:36:45.089Z,47.97
2019-06-27T13:39:15.385Z,46.21
2019-06-27T13:41:45.966Z,46.38
2019-06-27T13:44:16.263Z,46.39
2019-06-27T13:46:46.936Z,46.62
2019-06-27T13:49:17.433Z,47.17
2019-06-27T13:51:47.595Z,45.66
2019-06-27T13:54:18.078Z,47.04
2019-06-27T13:56:48.267Z,47.39
2019-06-27T13:59:18.576Z,46.34
2019-06-27T14:01:48.844Z,46.61
2019-06-27T14:04:19.288Z,46.58
2019-06-27T14:06:49.472Z,46.65
2019-06-27T14:09:23.523Z,48.05
2019-06-27T14:11:52.148Z,47.69
2019-06-27T14:14:22.384Z,47.82
2019-06-27T14:16:52.588Z,47.72
2019-06-27T14:19:22.863Z,48.01
2019-06-27T14:21:53.159Z,46.81
2019-06-27T14:24:23.417Z,47.73
2019-06-27T14:26:53.679Z,46.90
2019-06-27T14:29:24.033Z,47.93
2019-06-27T14:31:54.617Z,46.34
2019-06-27T14:34:24.982Z,46.12
2019-06-27T14:36:55.164Z,47.40
2019-06-27T14:39:25.649Z,46.19
2019-06-27T14:41:56.011Z,46.11
2019-06-27T14:44:26.235Z,45.52
2019-06-27T14:46:57.516Z,46.27
2019-06-27T14:49:28.938Z,46.14
2019-06-27T14:51:59.463Z,46.14
2019-06-27T14:54:29.683Z,46.93
2019-06-27T14:56:59.862Z,47.81
2019-06-27T14:59:30.980Z,46.88
2019-06-27T15:02:01.618Z,47.26
2019-06-27T15:04:31.892Z,47.06
2019-06-27T15:07:03.084Z,47.41
2019-06-27T15:09:33.382Z,48.21
2019-06-27T15:12:03.633Z,47.19
2019-06-27T15:14:33.919Z,48.35
2019-06-27T15:17:04.192Z,47.73
2019-06-27T15:19:34.460Z,48.37
2019-06-27T15:22:05.213Z,47.35
2019-06-27T15:24:35.810Z,48.47
2019-06-27T15:27:06.459Z,48.47
2019-06-27T15:29:37.554Z,48.69
2019-06-27T15:32:07.772Z,47.80
2019-06-27T15:34:38.985Z,48.18
2019-06-27T15:37:09.237Z,48.86
2019-06-27T15:39:39.557Z,47.17
2019-06-27T15:42:09.779Z,47.50
2019-06-27T15:44:40.152Z,46.12
2019-06-27T15:47:10.326Z,46.66
2019-06-27T15:49:45.014Z,47.39
2019-06-27T15:52:15.293Z,46.25
2019-06-27T15:54:45.655Z,46.31
2019-06-27T15:57:16.024Z,45.57
2019-06-27T15:59:46.244Z,45.96
2019-06-27T16:02:16.483Z,45.99
2019-06-27T16:04:47.254Z,46.85
2019-06-27T16:07:17.817Z,46.77
2019-06-27T16:09:48.480Z,47.49
2019-06-27T16:12:18.739Z,46.16
2019-06-27T16:14:48.938Z,45.25
2019-06-27T16:17:19.322Z,47.81
2019-06-27T16:19:49.526Z,48.02
2019-06-27T16:22:19.819Z,47.85
2019-06-27T16:24:50.099Z,47.44
2019-06-27T16:27:20.967Z,47.41
2019-06-27T16:29:51.243Z,45.22
2019-06-27T16:32:21.515Z,45.05
2019-06-27T16:34:52.370Z,45.13
2019-06-27T16:37:22.942Z,43.90
2019-06-27T16:39:53.223Z,44.87
2019-06-27T16:42:23.523Z,44.99
2019-06-27T16:44:54.714Z,45.08
2019-06-27T16:47:24.973Z,45.78
2019-06-27T16:49:55.861Z,45.28
2019-06-27T16:52:26.100Z,45.46
2019-06-27T16:54:56.392Z,44.81
2019-06-27T16:57:27.921Z,45.52
2019-06-27T16:59:58.218Z,45.60
2019-06-27T17:02:28.430Z,46.68
2019-06-27T17:04:58.690Z,46.54
2019-06-27T17:07:28.869Z,46.05
2019-06-27T17:09:59.098Z,45.89
2019-06-27T17:12:29.279Z,44.87
2019-06-27T17:14:59.556Z,46.00
2019-06-27T17:17:30.225Z,45.29
2019-06-27T17:20:00.530Z,43.99
2019-06-27T17:22:32.164Z,44.62
2019-06-27T17:25:04.244Z,43.17
2019-06-27T17:27:35.727Z,42.47
2019-06-27T17:30:08.459Z,44.17
2019-06-27T17:32:38.837Z,43.89
2019-06-27T17:35:09.110Z,43.67
2019-06-27T17:37:39.371Z,43.10
2019-06-27T17:40:10.307Z,42.45
2019-06-27T17:42:40.960Z,42.47
2019-06-27T17:45:11.738Z,42.34
2019-06-27T17:47:42.092Z,41.67
2019-06-27T17:50:12.826Z,41.94
2019-06-27T17:52:43.422Z,41.75
2019-06-27T17:55:14.541Z,41.65
2019-06-27T17:57:47.245Z,42.07
2019-06-27T18:00:17.259Z,40.93
2019-06-27T18:02:47.509Z,40.36
2019-06-27T18:05:18.837Z,39.91
2019-06-27T18:07:49.491Z,38.70
2019-06-27T18:10:20.971Z,38.43
2019-06-27T18:12:51.536Z,37.16
2019-06-27T18:15:22.167Z,35.77
2019-06-27T18:17:52.344Z,34.69
2019-06-27T18:20:23.188Z,34.11
2019-06-27T18:22:53.481Z,33.72
2019-06-27T18:25:23.770Z,33.54
2019-06-27T18:27:54.036Z,33.26
2019-06-27T18:30:24.524Z,33.05
2019-06-27T18:32:55.135Z,32.92
2019-06-27T18:35:25.828Z,32.65
2019-06-27T18:37:56.131Z,32.48
2019-06-27T18:40:26.489Z,32.35
2019-06-27T18:42:56.796Z,32.15
2019-06-27T18:45:27.107Z,31.99
2019-06-27T18:47:57.770Z,31.81
2019-06-27T18:50:28.558Z,31.62
2019-06-27T18:52:59.127Z,31.47
2019-06-27T18:55:29.390Z,31.32
2019-06-27T18:57:59.729Z,31.12
2019-06-27T19:00:30.932Z,30.94
2019-06-27T19:03:01.518Z,30.79
2019-06-27T19:05:32.174Z,30.67
2019-06-27T19:08:02.408Z,30.53
2019-06-27T19:10:32.657Z,30.38
2019-06-27T19:13:03.007Z,30.29
2019-06-27T19:15:33.584Z,30.13
2019-06-27T19:18:04.131Z,29.99
2019-06-27T19:20:49.671Z,29.84
2019-06-27T19:23:38.763Z,29.74
2019-06-27T19:26:09.042Z,29.62
2019-06-27T19:28:39.404Z,29.51
2019-06-27T19:31:10.331Z,29.38
2019-06-27T19:33:40.904Z,29.14
2019-06-27T19:36:11.489Z,29.14
2019-06-27T19:38:42.029Z,28.99
2019-06-27T19:41:12.544Z,28.92
2019-06-27T19:43:42.788Z,28.86
2019-06-27T19:46:13.986Z,28.75
2019-06-27T19:48:45.711Z,28.68
2019-06-27T19:51:16.407Z,28.62
2019-06-27T19:53:46.650Z,28.51
2019-06-27T19:56:17.218Z,28.43
2019-06-27T19:58:47.499Z,28.37
2019-06-27T20:01:18.054Z,28.29
2019-06-27T20:03:48.344Z,28.21
2019-06-27T20:06:18.690Z,28.19
2019-06-27T20:08:48.985Z,28.15
2019-06-27T20:11:19.318Z,28.08
2019-06-27T20:13:49.557Z,27.98
2019-06-27T20:16:19.861Z,27.90
2019-06-27T20:18:50.689Z,27.87
2019-06-27T20:21:21.319Z,27.80
2019-06-27T20:23:51.807Z,27.75
2019-06-27T20:26:22.720Z,27.65
2019-06-27T20:28:52.936Z,27.51
2019-06-27T20:31:23.210Z,27.44
2019-06-27T20:33:53.485Z,27.40
2019-06-27T20:36:23.668Z,27.31
2019-06-27T20:38:53.915Z,27.22
2019-06-27T20:41:24.286Z,27.15
2019-06-27T20:43:54.486Z,27.05
2019-06-27T20:46:24.660Z,27.04
2019-06-27T20:48:54.866Z,26.96
2019-06-27T20:51:25.093Z,26.94
2019-06-27T20:53:55.628Z,26.93
2019-06-27T20:56:25.940Z,26.80
2019-06-27T20:58:57.660Z,26.64
2019-06-27T21:01:31.530Z,26.58
2019-06-27T21:04:00.966Z,26.53
2019-06-27T21:06:32.053Z,26.46
2019-06-27T21:09:02.925Z,26.42
2019-06-27T21:11:33.695Z,26.32
2019-06-27T21:14:04.741Z,26.28
2019-06-27T21:16:35.922Z,26.18
2019-06-27T21:19:07.161Z,26.10
2019-06-27T21:21:37.378Z,25.99
2019-06-27T21:24:08.694Z,25.97
2019-06-27T21:26:38.957Z,25.91
2019-06-27T21:29:09.239Z,25.82
2019-06-27T21:31:39.768Z,25.80
2019-06-27T21:34:10.368Z,25.73
2019-06-27T21:36:40.542Z,25.67
2019-06-27T21:39:10.825Z,25.62
2019-06-27T21:41:41.087Z,25.56
2019-06-27T21:44:11.364Z,25.52
2019-06-27T21:46:41.673Z,25.47
2019-06-27T21:49:12.859Z,25.44
2019-06-27T21:51:43.196Z,25.47
2019-06-27T21:54:13.496Z,25.42
2019-06-27T21:56:43.772Z,25.30
2019-06-27T21:59:14.051Z,25.27
2019-06-27T22:01:44.411Z,25.18
2019-06-27T22:04:15.063Z,25.08
2019-06-27T22:06:45.564Z,25.05
2019-06-27T22:09:24.680Z,25.11
2019-06-27T22:11:48.245Z,25.10
2019-06-27T22:14:18.445Z,25.11
2019-06-27T22:16:48.655Z,25.13
2019-06-27T22:19:19.222Z,25.20
2019-06-27T22:21:49.451Z,25.25
2019-06-27T22:24:19.682Z,25.22
2019-06-27T22:26:49.999Z,25.18
2019-06-27T22:29:20.295Z,25.15
2019-06-27T22:31:50.947Z,25.08
2019-06-27T22:34:22.227Z,24.99
2019-06-27T22:36:54.150Z,24.92
2019-06-27T22:39:44.186Z,24.92
2019-06-27T22:42:32.291Z,24.92
2019-06-27T22:45:20.471Z,24.83
2019-06-27T22:48:08.682Z,24.83
2019-06-27T22:51:13.070Z,24.80
2019-06-27T22:53:52.255Z,24.76
2019-06-27T22:56:22.701Z,24.78
2019-06-27T22:58:53.228Z,24.78
2019-06-27T23:01:23.465Z,24.76
2019-06-27T23:03:53.705Z,24.91
2019-06-27T23:06:24.046Z,24.95
2019-06-27T23:08:54.215Z,24.97
2019-06-27T23:11:24.474Z,24.98
2019-06-27T23:13:54.690Z,24.99
2019-06-27T23:16:25.387Z,24.89
2019-06-27T23:18:55.609Z,24.82
2019-06-27T23:21:25.803Z,24.86
2019-06-27T23:23:56.064Z,24.86
2019-06-27T23:26:26.387Z,24.85
2019-06-27T23:28:57.012Z,24.77
2019-06-27T23:31:27.214Z,24.70
2019-06-27T23:33:57.479Z,24.60
2019-06-27T23:36:28.471Z,24.47
2019-06-27T23:38:58.951Z,24.42
2019-06-27T23:41:29.199Z,24.41
2019-06-27T23:43:59.471Z,24.36
2019-06-27T23:46:40.634Z,24.27
2019-06-27T23:49:11.785Z,24.16
2019-06-27T23:51:42.064Z,24.11
2019-06-27T23:54:12.359Z,24.06
2019-06-27T23:56:44.022Z,24.03
2019-06-27T23:59:14.223Z,24.00
